Time;durP1;ratioP1;P1;durP2;ratioP2;P2;SDS_P1;SDS_P2;PMS_P1;PMS_P2;Temp;Humidity;BMP_temperature;BMP_pressure;BME280_temperature;BME280_humidity;BME280_pressure;Samples;Min_cycle;Max_cycle;Signal;HPM_P1;HPM_P2
2020/12/31 00:01:25;;;;;;;15.73;12.57;;;;;;;5.57;100.00;99591.44;5042002;28;20226;-73
2020/12/31 00:03:51;;;;;;;14.87;12.80;;;;;;;5.63;100.00;99584.19;5030063;28;20258;-73
2020/12/31 00:06:17;;;;;;;14.30;12.80;;;;;;;5.52;100.00;99587.91;5025909;28;20716;-74
2020/12/31 00:08:45;;;;;;;19.07;14.10;;;;;;;5.51;100.00;99589.81;5044044;28;20190;-75
2020/12/31 00:11:13;;;;;;;17.07;13.03;;;;;;;5.53;100.00;99586.81;5083781;28;20241;-73
2020/12/31 00:13:39;;;;;;;15.20;12.30;;;;;;;5.62;100.00;99583.34;5068204;28;20183;-73
2020/12/31 00:16:05;;;;;;;18.83;13.90;;;;;;;5.56;100.00;99583.63;5065404;28;20264;-73
2020/12/31 00:18:30;;;;;;;18.00;12.73;;;;;;;5.45;99.73;99584.66;5036687;28;20604;-74
2020/12/31 00:20:56;;;;;;;16.63;12.37;;;;;;;5.67;99.04;99585.25;5039137;28;20219;-74
2020/12/31 00:23:21;;;;;;;13.20;11.73;;;;;;;5.51;98.56;99595.19;5088113;28;20202;-74
2020/12/31 00:25:51;;;;;;;15.47;12.90;;;;;;;5.45;99.36;99598.13;5071701;28;20723;-75
2020/12/31 00:28:23;;;;;;;14.40;12.60;;;;;;;5.52;98.71;99588.72;5069666;28;20241;-74
2020/12/31 00:30:51;;;;;;;16.67;13.60;;;;;;;5.56;98.74;99594.38;5057474;28;20330;-75
2020/12/31 00:33:25;;;;;;;14.87;12.77;;;;;;;5.50;98.81;99595.47;5073482;28;20691;-74
2020/12/31 00:35:56;;;;;;;15.53;13.50;;;;;;;5.32;100.00;99604.00;5072658;28;20263;-74
2020/12/31 00:38:22;;;;;;;16.93;13.73;;;;;;;5.25;100.00;99606.13;5054392;28;20191;-75
2020/12/31 00:40:48;;;;;;;17.07;14.07;;;;;;;5.17;100.00;99601.25;5081920;28;20222;-76
2020/12/31 00:43:14;;;;;;;14.27;12.77;;;;;;;5.34;99.63;99601.84;5071024;28;20210;-75
2020/12/31 00:45:42;;;;;;;16.33;13.20;;;;;;;5.28;99.31;99597.53;5052729;28;20592;-75
2020/12/31 00:48:13;;;;;;;15.27;13.33;;;;;;;5.07;99.56;99595.84;5053331;28;20588;-76
2020/12/31 00:50:39;;;;;;;16.10;14.27;;;;;;;5.17;99.90;99603.16;5055910;28;20223;-74
2020/12/31 00:53:05;;;;;;;28.63;22.37;;;;;;;5.25;99.02;99599.94;5056345;28;20175;-74
2020/12/31 00:55:32;;;;;;;15.20;13.60;;;;;;;5.27;98.54;99608.56;5021938;28;20249;-74
2020/12/31 00:57:58;;;;;;;16.03;14.20;;;;;;;5.18;98.90;99607.44;5036387;28;20213;-74
2020/12/31 01:00:27;;;;;;;17.53;14.10;;;;;;;5.31;99.38;99607.78;5054810;28;20248;-74
2020/12/31 01:03:06;;;;;;;16.13;13.50;;;;;;;5.34;98.85;99617.22;5056005;28;20207;-75
2020/12/31 01:05:35;;;;;;;16.40;14.57;;;;;;;5.32;97.63;99614.78;5038525;28;20308;-75
2020/12/31 01:08:00;;;;;;;16.80;14.10;;;;;;;5.45;96.95;99608.91;5073203;28;20644;-75
2020/12/31 01:10:26;;;;;;;18.47;14.27;;;;;;;5.38;97.05;99613.72;5054605;28;20227;-74
2020/12/31 01:12:54;;;;;;;18.73;15.97;;;;;;;5.39;96.17;99609.97;5057049;28;20228;-75
2020/12/31 01:15:20;;;;;;;19.10;14.67;;;;;;;5.40;95.90;99607.00;5022268;28;20187;-74
2020/12/31 01:17:45;;;;;;;17.50;15.13;;;;;;;5.44;95.73;99618.88;5056688;28;20206;-74
2020/12/31 01:20:13;;;;;;;16.40;14.13;;;;;;;5.38;96.30;99616.41;5073498;28;20627;-76
2020/12/31 01:22:38;;;;;;;18.00;15.67;;;;;;;5.22;96.96;99609.38;5074770;28;20233;-75
2020/12/31 01:25:04;;;;;;;19.30;15.50;;;;;;;5.37;96.22;99614.81;5057680;28;20191;-74
2020/12/31 01:27:30;;;;;;;20.03;16.23;;;;;;;5.27;96.57;99612.06;5060049;28;20264;-74
2020/12/31 01:29:55;;;;;;;19.50;15.40;;;;;;;5.29;96.65;99614.50;5076177;28;20209;-74
2020/12/31 01:32:24;;;;;;;17.23;15.13;;;;;;;5.27;96.23;99614.75;5057908;28;20229;-75
2020/12/31 01:34:52;;;;;;;21.17;16.73;;;;;;;5.32;96.68;99622.03;5048397;28;20214;-77
2020/12/31 01:37:20;;;;;;;18.07;15.90;;;;;;;5.41;96.23;99618.59;5048649;28;20255;-77
2020/12/31 01:39:49;;;;;;;18.67;16.60;;;;;;;5.51;95.01;99622.13;5051740;28;20235;-74
2020/12/31 01:42:14;;;;;;;20.03;17.17;;;;;;;5.34;94.98;99613.44;5079833;28;20226;-74
2020/12/31 01:44:40;;;;;;;19.07;16.53;;;;;;;5.26;96.02;99618.53;5072328;28;20764;-75
2020/12/31 01:47:06;;;;;;;20.37;16.73;;;;;;;5.16;96.55;99615.78;5089159;28;20780;-75
2020/12/31 01:49:33;;;;;;;20.23;17.50;;;;;;;5.20;96.42;99608.81;5047592;28;20236;-75
2020/12/31 01:52:01;;;;;;;19.47;16.63;;;;;;;5.27;96.02;99622.03;5058545;28;20218;-74
2020/12/31 01:54:26;;;;;;;21.03;17.30;;;;;;;5.14;96.54;99612.53;5058766;28;20174;-75
2020/12/31 01:56:57;;;;;;;21.70;17.50;;;;;;;5.26;95.94;99621.22;5042368;28;20226;-75
2020/12/31 01:59:23;;;;;;;20.40;16.57;;;;;;;5.07;96.29;99605.78;5092352;28;20744;-75
2020/12/31 02:01:49;;;;;;;20.97;17.70;;;;;;;5.09;96.58;99630.53;5074892;28;20214;-75
2020/12/31 02:04:14;;;;;;;26.33;18.53;;;;;;;4.98;96.67;99629.69;5091622;28;20732;-74
2020/12/31 02:06:40;;;;;;;21.87;17.43;;;;;;;4.82;97.45;99639.84;5045047;28;20218;-74
2020/12/31 02:09:06;;;;;;;23.20;18.20;;;;;;;4.77;97.80;99629.03;5038056;28;20179;-74
2020/12/31 02:11:33;;;;;;;23.20;17.97;;;;;;;4.94;96.69;99622.41;5045157;28;20307;-75
2020/12/31 02:14:01;;;;;;;21.67;17.43;;;;;;;4.86;97.09;99628.28;5022489;28;20182;-74
2020/12/31 02:16:37;;;;;;;21.23;16.30;;;;;;;4.86;97.38;99627.47;5054763;28;20225;-74
2020/12/31 02:19:12;;;;;;;21.53;17.67;;;;;;;4.77;97.08;99631.72;5072326;28;20236;-74
2020/12/31 02:21:48;;;;;;;22.00;17.50;;;;;;;4.67;97.93;99637.03;5030596;28;20246;-74
2020/12/31 02:24:14;;;;;;;22.23;17.03;;;;;;;4.72;97.90;99631.69;5071299;28;20685;-74
2020/12/31 02:26:40;;;;;;;24.77;17.70;;;;;;;4.66;97.73;99638.09;5044721;28;20227;-74
2020/12/31 02:29:06;;;;;;;23.90;17.60;;;;;;;4.63;98.40;99642.13;5054945;28;20232;-74
2020/12/31 02:31:32;;;;;;;21.43;17.80;;;;;;;4.71;98.06;99636.25;5054010;28;20211;-74
2020/12/31 02:33:58;;;;;;;21.07;17.67;;;;;;;4.69;97.49;99637.59;5054674;28;20190;-74
2020/12/31 02:36:25;;;;;;;24.83;17.90;;;;;;;4.70;97.63;99637.31;5053813;28;20226;-74
2020/12/31 02:38:51;;;;;;;22.97;17.63;;;;;;;4.63;97.89;99644.00;5047531;28;20194;-75
2020/12/31 02:41:17;;;;;;;23.70;18.33;;;;;;;4.66;97.73;99644.28;5057699;28;20701;-74
2020/12/31 02:43:43;;;;;;;23.40;17.80;;;;;;;4.56;98.38;99638.06;5075369;28;20203;-75
2020/12/31 02:46:12;;;;;;;23.13;17.83;;;;;;;4.59;97.91;99630.25;5048403;28;20226;-74
2020/12/31 02:48:39;;;;;;;23.23;17.77;;;;;;;4.49;97.99;99633.97;5070586;28;20179;-74
2020/12/31 02:51:05;;;;;;;23.70;17.77;;;;;;;4.53;97.56;99640.44;5065245;28;20606;-73
2020/12/31 02:53:31;;;;;;;24.67;18.50;;;;;;;4.54;97.73;99640.16;5054298;28;20186;-73
2020/12/31 02:55:56;;;;;;;24.33;17.60;;;;;;;4.37;98.50;99642.19;5053307;28;20352;-73
2020/12/31 02:58:22;;;;;;;23.23;17.43;;;;;;;4.35;98.54;99643.53;5070485;28;20175;-74
2020/12/31 03:00:51;;;;;;;23.00;17.27;;;;;;;4.26;98.80;99632.44;5051144;28;20322;-75
2020/12/31 03:03:19;;;;;;;22.53;17.83;;;;;;;4.27;99.08;99635.94;5039543;28;20664;-74
2020/12/31 03:05:45;;;;;;;22.90;17.40;;;;;;;4.30;98.69;99636.25;5052990;28;20260;-74
2020/12/31 03:08:10;;;;;;;21.77;17.43;;;;;;;4.29;98.74;99634.63;5053675;28;20567;-74
2020/12/31 03:10:36;;;;;;;22.83;17.53;;;;;;;4.17;99.35;99632.34;5053330;28;20234;-73
2020/12/31 03:13:02;;;;;;;24.00;18.27;;;;;;;4.06;99.23;99633.34;5053953;28;20279;-73
2020/12/31 03:15:29;;;;;;;22.70;16.77;;;;;;;4.11;99.41;99633.38;5037766;28;20226;-73
2020/12/31 03:17:55;;;;;;;23.63;16.17;;;;;;;4.00;99.48;99629.78;5036329;28;20182;-74
2020/12/31 03:20:20;;;;;;;22.97;17.20;;;;;;;3.97;99.99;99629.50;5034149;28;20222;-74
2020/12/31 03:22:48;;;;;;;21.80;16.70;;;;;;;3.97;99.94;99637.53;5034614;28;20179;-73
2020/12/31 03:25:14;;;;;;;21.80;16.40;;;;;;;4.01;99.62;99641.34;5017789;28;20183;-74
2020/12/31 03:27:44;;;;;;;22.37;16.73;;;;;;;3.88;99.65;99626.47;5051656;28;20191;-74
2020/12/31 03:30:10;;;;;;;22.03;16.30;;;;;;;3.86;100.00;99633.16;5017684;28;20199;-74
2020/12/31 03:32:38;;;;;;;22.87;16.67;;;;;;;3.84;100.00;99632.59;5001493;28;20183;-75
2020/12/31 03:35:03;;;;;;;26.93;16.70;;;;;;;3.68;100.00;99630.84;5000981;28;20197;-73
2020/12/31 03:37:32;;;;;;;25.03;17.10;;;;;;;3.62;100.00;99631.81;5038704;28;20219;-74
2020/12/31 03:40:01;;;;;;;26.17;18.50;;;;;;;3.46;100.00;99630.06;5057217;28;20323;-74
2020/12/31 03:42:29;;;;;;;24.60;17.47;;;;;;;3.40;100.00;99629.44;5073564;28;20221;-73
2020/12/31 03:44:54;;;;;;;24.83;17.13;;;;;;;3.32;100.00;99630.69;5090145;28;20206;-74
2020/12/31 03:47:20;;;;;;;23.97;17.00;;;;;;;3.58;100.00;99635.28;5056697;28;20256;-73
2020/12/31 03:49:50;;;;;;;23.67;16.90;;;;;;;3.47;100.00;99631.66;5073660;28;20702;-73
2020/12/31 03:52:15;;;;;;;22.07;16.33;;;;;;;3.39;100.00;99627.81;5073904;28;20230;-73
2020/12/31 03:54:41;;;;;;;26.83;17.87;;;;;;;3.55;100.00;99623.19;5073455;28;20186;-75
2020/12/31 03:57:09;;;;;;;23.80;16.70;;;;;;;3.59;100.00;99624.28;5056357;28;20218;-73
2020/12/31 03:59:35;;;;;;;23.13;16.67;;;;;;;3.66;100.00;99622.19;5090197;28;20288;-73
2020/12/31 04:02:00;;;;;;;23.90;16.80;;;;;;;3.54;100.00;99629.59;5056677;28;20232;-73
2020/12/31 04:04:26;;;;;;;22.77;16.80;;;;;;;3.46;100.00;99630.06;5056630;28;20955;-73
2020/12/31 04:06:56;;;;;;;24.33;16.20;;;;;;;3.71;100.00;99622.25;5072903;28;20265;-73
2020/12/31 04:09:24;;;;;;;22.23;16.10;;;;;;;3.75;100.00;99622.56;5056729;28;20230;-73
2020/12/31 04:11:50;;;;;;;21.40;16.03;;;;;;;3.65;100.00;99615.22;5089631;28;20225;-74
2020/12/31 04:14:15;;;;;;;20.87;14.90;;;;;;;3.74;100.00;99621.75;5056229;28;20182;-73
2020/12/31 04:16:43;;;;;;;22.47;15.27;;;;;;;3.80;100.00;99618.06;5089508;28;20218;-73
2020/12/31 04:19:09;;;;;;;23.00;15.83;;;;;;;3.87;100.00;99618.66;5091447;28;20190;-73
2020/12/31 04:21:39;;;;;;;22.37;15.17;;;;;;;3.82;100.00;99615.94;5073278;28;20233;-74
2020/12/31 04:24:07;;;;;;;21.23;15.23;;;;;;;3.87;98.88;99618.66;5089794;28;20227;-73
2020/12/31 04:26:35;;;;;;;20.33;15.27;;;;;;;3.81;99.19;99611.63;5076912;28;20225;-74
2020/12/31 04:29:03;;;;;;;18.43;14.47;;;;;;;3.59;100.00;99608.19;5094258;28;21383;-73
2020/12/31 04:31:29;;;;;;;20.13;15.33;;;;;;;3.71;100.00;99610.72;5073323;28;20218;-74
2020/12/31 04:33:59;;;;;;;21.20;15.50;;;;;;;3.80;100.00;99610.00;5065680;28;20639;-73
2020/12/31 04:36:25;;;;;;;22.50;15.23;;;;;;;3.77;99.09;99610.50;5065408;28;20688;-74
2020/12/31 04:38:53;;;;;;;17.60;13.43;;;;;;;3.95;98.35;99615.50;5024712;28;20278;-73
2020/12/31 04:41:19;;;;;;;20.83;14.47;;;;;;;3.87;99.20;99613.28;5030451;28;20219;-74
2020/12/31 04:43:45;;;;;;;19.20;13.67;;;;;;;3.87;99.09;99618.66;5089871;28;20678;-73
2020/12/31 04:46:10;;;;;;;20.77;14.20;;;;;;;4.09;97.51;99616.72;5066765;28;20230;-73
2020/12/31 04:48:40;;;;;;;17.57;13.67;;;;;;;4.15;96.69;99613.81;5040191;28;20616;-73
2020/12/31 04:51:07;;;;;;;16.70;12.10;;;;;;;4.20;96.58;99613.06;5044715;28;20266;-74
2020/12/31 04:53:33;;;;;;;15.87;12.87;;;;;;;4.14;96.42;99617.56;5035909;28;20188;-73
2020/12/31 04:56:01;;;;;;;15.57;11.73;;;;;;;4.20;95.96;99615.75;5035822;28;20229;-74
2020/12/31 04:58:29;;;;;;;15.33;11.93;;;;;;;4.22;96.64;99617.88;5053542;28;20180;-73
2020/12/31 05:00:55;;;;;;;16.40;12.03;;;;;;;4.16;95.99;99623.50;5035585;28;20230;-73
2020/12/31 05:03:21;;;;;;;16.43;11.60;;;;;;;4.35;95.20;99617.47;5056460;28;20604;-74
2020/12/31 05:05:46;;;;;;;13.43;10.23;;;;;;;4.29;94.41;99613.13;5040725;28;20222;-74
2020/12/31 05:08:12;;;;;;;14.30;10.77;;;;;;;4.23;94.79;99614.16;5073131;28;20184;-73
2020/12/31 05:10:38;;;;;;;13.27;10.47;;;;;;;4.33;93.78;99605.34;5057056;28;20226;-73
2020/12/31 05:13:07;;;;;;;13.20;10.70;;;;;;;4.18;94.77;99609.81;5072413;28;20223;-73
2020/12/31 05:15:41;;;;;;;14.47;10.00;;;;;;;4.20;94.74;99614.66;5071916;28;20226;-73
2020/12/31 05:18:26;;;;;;;12.77;9.97;;;;;;;4.37;93.62;99614.50;5056261;28;20912;-72
2020/12/31 05:20:53;;;;;;;12.23;9.13;;;;;;;4.30;93.53;99612.06;5038940;28;20233;-73
2020/12/31 05:23:22;;;;;;;11.57;9.23;;;;;;;4.22;93.66;99612.53;5072334;28;20213;-73
2020/12/31 05:25:48;;;;;;;12.03;9.70;;;;;;;4.26;93.80;99613.63;5069085;28;20296;-74
2020/12/31 05:28:43;;;;;;;11.77;9.40;;;;;;;4.27;92.62;99626.00;5072442;28;20219;-73
2020/12/31 05:31:14;;;;;;;11.87;8.60;;;;;;;4.09;93.75;99622.09;5042276;28;20231;-74
2020/12/31 05:33:43;;;;;;;11.67;9.07;;;;;;;4.28;93.60;99616.84;5039550;28;20187;-73
2020/12/31 05:36:16;;;;;;;11.73;9.40;;;;;;;4.23;93.61;99616.84;5060006;28;20313;-73
2020/12/31 05:38:46;;;;;;;11.53;9.17;;;;;;;4.27;93.30;99611.75;5072789;28;20190;-73
2020/12/31 05:41:11;;;;;;;10.70;9.17;;;;;;;4.24;93.40;99613.06;5054785;28;20241;-74
2020/12/31 05:43:39;;;;;;;10.73;8.47;;;;;;;4.33;92.91;99613.41;5055325;28;20199;-73
2020/12/31 05:46:10;;;;;;;10.27;8.40;;;;;;;4.33;92.61;99619.59;5054156;28;20226;-74
2020/12/31 05:48:35;;;;;;;11.73;8.63;;;;;;;4.30;93.51;99627.34;5055621;28;20190;-73
2020/12/31 05:51:24;;;;;;;11.30;9.33;;;;;;;4.23;92.28;99618.69;5049815;28;20317;-73
2020/12/31 05:53:49;;;;;;;10.80;9.10;;;;;;;4.30;92.25;99616.59;5042144;28;20227;-74
2020/12/31 05:56:17;;;;;;;11.93;10.60;;;;;;;4.09;93.57;99627.47;5070998;28;20223;-73
2020/12/31 05:58:52;;;;;;;10.37;8.73;;;;;;;4.29;93.20;99618.50;5055568;28;20172;-73
2020/12/31 06:01:20;;;;;;;11.17;8.63;;;;;;;4.28;92.60;99622.22;5022327;28;20218;-73
2020/12/31 06:03:50;;;;;;;14.97;10.30;;;;;;;4.25;92.62;99633.50;5021773;28;20198;-73
2020/12/31 06:06:20;;;;;;;11.57;8.90;;;;;;;4.28;92.73;99622.22;5038290;28;20222;-73
2020/12/31 06:08:56;;;;;;;9.70;8.23;;;;;;;4.20;93.05;99623.78;5038085;28;20221;-73
2020/12/31 06:11:32;;;;;;;10.57;8.73;;;;;;;4.31;93.26;99626.31;5063489;28;20222;-74
2020/12/31 06:13:57;;;;;;;10.63;8.73;;;;;;;4.20;92.95;99625.41;5055721;28;20232;-73
2020/12/31 06:16:26;;;;;;;11.13;8.07;;;;;;;4.24;92.37;99621.13;5048241;28;20215;-73
2020/12/31 06:18:52;;;;;;;9.63;7.87;;;;;;;4.17;92.98;99627.00;5051753;28;20184;-73
2020/12/31 06:21:18;;;;;;;10.43;8.20;;;;;;;4.18;92.55;99631.31;5047745;28;20352;-74
2020/12/31 06:23:48;;;;;;;9.53;7.70;;;;;;;4.10;93.30;99629.06;5019650;28;20285;-73
2020/12/31 06:26:18;;;;;;;9.17;8.00;;;;;;;4.22;93.27;99628.63;5050518;28;20604;-73
2020/12/31 06:28:47;;;;;;;9.77;7.70;;;;;;;4.32;91.08;99627.91;5035399;28;20743;-73
2020/12/31 06:31:12;;;;;;;9.33;7.13;;;;;;;4.36;91.50;99620.94;5033821;28;20231;-73
2020/12/31 06:33:49;;;;;;;10.53;7.90;;;;;;;4.25;91.30;99627.34;5034802;28;20261;-73
2020/12/31 06:36:16;;;;;;;9.07;7.53;;;;;;;4.10;92.66;99635.25;5057248;28;20224;-74
2020/12/31 06:38:52;;;;;;;7.23;6.50;;;;;;;4.25;92.04;99622.75;5043161;28;20649;-73
2020/12/31 06:41:30;;;;;;;10.53;7.27;;;;;;;4.20;91.89;99635.34;5047254;28;20736;-73
2020/12/31 06:44:07;;;;;;;9.60;7.17;;;;;;;4.36;91.07;99640.59;5080816;28;20207;-74
2020/12/31 06:46:49;;;;;;;8.07;6.93;;;;;;;4.26;91.48;99637.81;5065915;28;20613;-74
2020/12/31 06:49:17;;;;;;;7.30;6.20;;;;;;;4.34;89.62;99641.88;5087550;28;20276;-74
2020/12/31 06:51:45;;;;;;;9.63;6.50;;;;;;;4.26;90.35;99645.88;5070396;28;20224;-73
2020/12/31 06:54:28;;;;;;;8.00;6.87;;;;;;;4.08;91.21;99647.31;5056537;28;20822;-74
2020/12/31 06:56:54;;;;;;;8.40;6.53;;;;;;;4.14;91.37;99646.28;5068692;28;20222;-73
2020/12/31 06:59:24;;;;;;;7.67;6.87;;;;;;;4.09;91.02;99648.94;5074655;28;20615;-74
2020/12/31 07:01:52;;;;;;;7.93;6.77;;;;;;;4.10;91.68;99654.03;5090451;28;20221;-74
2020/12/31 07:04:27;;;;;;;10.23;7.00;;;;;;;4.10;91.45;99655.94;5060425;28;20207;-73
2020/12/31 07:06:53;;;;;;;9.30;7.40;;;;;;;4.11;91.17;99657.56;5072896;28;20254;-74
2020/12/31 07:09:31;;;;;;;8.00;6.87;;;;;;;4.02;91.94;99651.03;5058429;28;20232;-74
2020/12/31 07:12:04;;;;;;;8.53;6.87;;;;;;;4.10;91.24;99650.56;5044408;28;20204;-73
2020/12/31 07:14:33;;;;;;;7.60;6.20;;;;;;;4.05;91.90;99653.22;5031357;28;20167;-73
2020/12/31 07:17:10;;;;;;;8.50;6.80;;;;;;;4.06;91.94;99646.75;5041749;28;20242;-74
2020/12/31 07:19:48;;;;;;;7.43;6.30;;;;;;;3.97;92.79;99651.78;5041514;28;20210;-74
2020/12/31 07:22:13;;;;;;;7.57;6.67;;;;;;;4.09;92.48;99654.31;5039386;28;20220;-73
2020/12/31 07:25:07;;;;;;;7.30;6.50;;;;;;;4.05;92.75;99653.22;5069911;28;20206;-73
2020/12/31 07:27:40;;;;;;;8.80;6.47;;;;;;;4.11;92.80;99652.19;5074944;28;20210;-73
2020/12/31 07:30:10;;;;;;;9.20;7.20;;;;;;;4.12;91.84;99653.78;5073179;28;20225;-73
2020/12/31 07:32:58;;;;;;;9.10;6.97;;;;;;;4.13;92.30;99656.22;5074397;28;20186;-73
2020/12/31 07:35:33;;;;;;;8.50;7.40;;;;;;;4.03;92.54;99649.94;5079086;28;20682;-73
2020/12/31 07:38:14;;;;;;;7.80;6.67;;;;;;;4.01;93.73;99654.78;5073472;28;20190;-73
2020/12/31 07:40:43;;;;;;;8.13;7.07;;;;;;;4.15;92.36;99658.66;5073151;28;20252;-74
2020/12/31 07:43:16;;;;;;;8.13;6.63;;;;;;;4.19;92.21;99660.56;5069290;28;20178;-73
2020/12/31 07:45:49;;;;;;;8.37;6.53;;;;;;;4.09;92.16;99659.69;5069782;28;20229;-73
2020/12/31 07:48:15;;;;;;;6.63;5.70;;;;;;;4.12;93.00;99665.38;5058784;28;20556;-74
2020/12/31 07:50:43;;;;;;;7.47;6.03;;;;;;;4.05;93.30;99669.34;5064528;28;20237;-73
2020/12/31 07:53:09;;;;;;;6.87;6.03;;;;;;;4.10;93.75;99666.69;5058464;28;20670;-73
2020/12/31 07:55:35;;;;;;;7.43;5.83;;;;;;;3.93;94.02;99663.28;5054376;28;20229;-74
2020/12/31 07:58:04;;;;;;;6.90;6.00;;;;;;;4.13;93.51;99660.81;5071299;28;20254;-73
2020/12/31 08:00:32;;;;;;;9.17;6.53;;;;;;;4.03;94.47;99663.38;5055579;28;20219;-74
2020/12/31 08:03:00;;;;;;;7.60;6.57;;;;;;;4.05;94.51;99670.13;5054947;28;20570;-74
2020/12/31 08:05:26;;;;;;;7.87;5.97;;;;;;;4.00;94.94;99666.59;5053121;28;20191;-73
2020/12/31 08:07:53;;;;;;;6.57;5.87;;;;;;;4.15;94.21;99669.41;5037167;28;20186;-77
2020/12/31 08:10:18;;;;;;;7.03;5.50;;;;;;;4.15;94.40;99670.22;5032864;28;20195;-75
2020/12/31 08:12:53;;;;;;;6.83;5.80;;;;;;;4.25;93.54;99664.97;5053962;28;20247;-74
2020/12/31 08:15:22;;;;;;;6.67;5.33;;;;;;;4.06;94.87;99668.25;5078276;28;20179;-73
2020/12/31 08:17:52;;;;;;;5.77;5.10;;;;;;;4.09;94.87;99671.25;5039523;28;20194;-73
2020/12/31 08:20:19;;;;;;;6.53;5.60;;;;;;;3.98;95.78;99666.03;5053343;28;20202;-74
2020/12/31 08:22:49;;;;;;;7.50;5.63;;;;;;;4.08;95.50;99669.59;5073047;28;20202;-73
2020/12/31 08:25:15;;;;;;;7.33;5.70;;;;;;;4.13;95.06;99669.66;5068386;28;20612;-74
2020/12/31 08:27:41;;;;;;;6.03;5.37;;;;;;;4.17;95.39;99670.78;5021224;28;20190;-74
2020/12/31 08:30:08;;;;;;;8.27;5.67;;;;;;;4.23;95.59;99673.25;5044572;28;20200;-74
2020/12/31 08:32:52;;;;;;;6.10;5.50;;;;;;;4.28;94.81;99670.59;5056712;28;20193;-74
2020/12/31 08:35:33;;;;;;;6.40;5.63;;;;;;;4.28;94.35;99672.47;5070813;28;20307;-74
2020/12/31 08:38:03;;;;;;;7.23;5.47;;;;;;;4.41;94.40;99674.75;5054483;28;20608;-74
2020/12/31 08:40:30;;;;;;;6.30;5.30;;;;;;;4.31;93.97;99670.09;5035407;28;20226;-74
2020/12/31 08:42:56;;;;;;;6.60;5.67;;;;;;;4.40;94.54;99667.75;5053050;28;20264;-74
2020/12/31 08:45:31;;;;;;;6.27;5.63;;;;;;;4.32;94.74;99677.09;5051888;28;20781;-74
2020/12/31 08:48:16;;;;;;;8.37;5.80;;;;;;;4.45;94.30;99675.84;5052741;28;20178;-74
2020/12/31 08:50:45;;;;;;;6.90;5.90;;;;;;;4.43;93.25;99673.44;5040551;28;20266;-74
2020/12/31 08:53:13;;;;;;;6.70;5.40;;;;;;;4.38;93.22;99676.06;5053451;28;20596;-74
2020/12/31 08:55:41;;;;;;;6.37;5.13;;;;;;;4.34;94.07;99674.97;5050287;28;20226;-74
2020/12/31 08:58:13;;;;;;;7.07;5.50;;;;;;;4.21;94.18;99670.03;5061142;28;20265;-74
2020/12/31 09:00:39;;;;;;;6.23;5.17;;;;;;;4.32;94.37;99677.09;5050609;28;20614;-75
2020/12/31 09:03:05;;;;;;;6.67;5.50;;;;;;;4.50;93.57;99668.63;5035818;28;20229;-74
2020/12/31 09:05:33;;;;;;;5.77;4.97;;;;;;;4.43;93.31;99668.06;5048385;28;20234;-74
2020/12/31 09:08:07;;;;;;;6.60;5.60;;;;;;;4.45;94.03;99673.16;5049700;28;20258;-74
2020/12/31 09:10:36;;;;;;;7.23;5.50;;;;;;;4.44;92.82;99666.97;5051762;28;20249;-74
2020/12/31 09:13:02;;;;;;;7.10;5.40;;;;;;;4.31;93.70;99670.09;5051726;28;20706;-74
2020/12/31 09:15:30;;;;;;;6.27;5.13;;;;;;;4.24;94.29;99676.75;5055169;28;20246;-74
2020/12/31 09:17:56;;;;;;;6.37;4.90;;;;;;;4.32;94.34;99674.41;5088828;28;20182;-73
2020/12/31 09:20:25;;;;;;;6.43;5.17;;;;;;;4.34;94.60;99672.28;5044866;28;20314;-74
2020/12/31 09:22:53;;;;;;;7.00;5.30;;;;;;;4.26;94.18;99683.47;5071342;28;20184;-75
2020/12/31 09:25:20;;;;;;;6.10;5.30;;;;;;;4.35;94.25;99673.88;5072583;28;20746;-74
2020/12/31 09:27:49;;;;;;;6.67;4.97;;;;;;;4.36;93.15;99672.84;5076771;28;20191;-74
2020/12/31 09:30:17;;;;;;;6.67;4.90;;;;;;;4.42;93.97;99677.19;5077303;28;20687;-74
2020/12/31 09:32:46;;;;;;;6.27;5.20;;;;;;;4.46;93.63;99683.66;5090903;28;20186;-75
2020/12/31 09:35:12;;;;;;;6.87;5.67;;;;;;;4.46;93.34;99683.66;5053276;28;20175;-74
2020/12/31 09:37:51;;;;;;;5.63;5.03;;;;;;;4.55;94.10;99673.25;5053172;28;20202;-74
2020/12/31 09:40:16;;;;;;;6.23;5.17;;;;;;;4.60;93.89;99669.53;5029240;28;20210;-74
2020/12/31 09:42:47;;;;;;;6.70;5.37;;;;;;;4.53;94.49;99681.56;5074739;28;20197;-74
2020/12/31 09:45:15;;;;;;;5.80;5.13;;;;;;;4.48;95.39;99676.16;5058262;28;20249;-75
2020/12/31 09:47:41;;;;;;;5.73;5.00;;;;;;;4.74;94.55;99680.63;5076356;28;20178;-75
2020/12/31 09:50:09;;;;;;;6.70;5.40;;;;;;;4.74;94.88;99680.63;5075990;28;20897;-75
2020/12/31 09:52:38;;;;;;;6.23;5.20;;;;;;;4.78;93.47;99676.34;5094672;28;20182;-75
2020/12/31 09:55:05;;;;;;;7.63;5.50;;;;;;;4.75;93.19;99683.06;5075534;28;20178;-74
2020/12/31 09:57:31;;;;;;;6.07;5.47;;;;;;;4.54;93.37;99683.16;5021444;28;20239;-73
2020/12/31 09:59:57;;;;;;;6.53;5.80;;;;;;;4.56;94.11;99678.38;5055620;28;20257;-74
2020/12/31 10:02:24;;;;;;;6.47;5.53;;;;;;;4.54;94.46;99680.47;5055155;28;20292;-77
2020/12/31 10:04:50;;;;;;;5.90;5.30;;;;;;;4.59;94.49;99675.16;5072656;28;20700;-75
2020/12/31 10:07:16;;;;;;;6.27;5.50;;;;;;;4.66;93.37;99670.38;5089496;28;20210;-74
2020/12/31 10:09:42;;;;;;;6.50;5.20;;;;;;;4.59;92.65;99672.47;5109404;28;20206;-74
2020/12/31 10:12:08;;;;;;;6.00;5.40;;;;;;;4.61;93.96;99675.72;5073772;28;20211;-75
2020/12/31 10:14:34;;;;;;;7.20;5.37;;;;;;;4.78;93.36;99673.66;5055637;28;20179;-74
2020/12/31 10:16:59;;;;;;;6.93;5.50;;;;;;;4.79;93.92;99667.25;5050061;28;20214;-74
2020/12/31 10:19:25;;;;;;;15.03;13.43;;;;;;;4.87;92.41;99674.81;5055324;28;20660;-75
2020/12/31 10:21:51;;;;;;;8.53;6.40;;;;;;;4.84;92.31;99672.66;5071562;28;20711;-72
2020/12/31 10:24:18;;;;;;;7.20;5.33;;;;;;;4.49;93.27;99660.84;5071561;28;20293;-74
2020/12/31 10:26:44;;;;;;;5.83;5.20;;;;;;;4.38;95.09;99669.91;5073999;28;20319;-73
2020/12/31 10:29:19;;;;;;;7.80;6.30;;;;;;;4.60;94.18;99674.09;5057044;28;20185;-73
2020/12/31 10:31:54;;;;;;;8.27;6.10;;;;;;;4.63;94.08;99668.19;5066638;28;20259;-74
2020/12/31 10:34:20;;;;;;;6.57;5.80;;;;;;;4.74;94.02;99670.72;5091098;28;20711;-74
2020/12/31 10:36:53;;;;;;;6.27;5.43;;;;;;;4.66;94.57;99667.69;5073639;28;20244;-74
2020/12/31 10:39:19;;;;;;;6.73;6.03;;;;;;;4.68;94.63;99660.97;5058624;28;20210;-74
2020/12/31 10:41:50;;;;;;;8.43;7.40;;;;;;;4.65;95.25;99660.69;5091336;28;20215;-73
2020/12/31 10:44:16;;;;;;;10.20;7.50;;;;;;;4.54;95.59;99658.97;5089359;28;20276;-73
2020/12/31 10:46:42;;;;;;;8.20;6.10;;;;;;;4.73;96.48;99657.53;5109033;28;20302;-73
2020/12/31 10:49:08;;;;;;;7.30;6.37;;;;;;;4.67;95.91;99656.69;5074413;28;20261;-74
2020/12/31 10:51:37;;;;;;;7.10;5.90;;;;;;;4.63;96.30;99652.91;5043752;28;20318;-74
2020/12/31 10:54:03;;;;;;;7.07;5.83;;;;;;;4.66;96.36;99663.13;5036774;28;20190;-74
2020/12/31 10:56:31;;;;;;;7.30;5.90;;;;;;;4.65;96.81;99657.97;5052453;28;20222;-74
2020/12/31 10:59:00;;;;;;;6.77;6.03;;;;;;;4.69;96.87;99653.75;5068073;28;20184;-74
2020/12/31 11:01:25;;;;;;;6.27;5.63;;;;;;;4.50;98.79;99655.19;5050456;28;20211;-74
2020/12/31 11:03:56;;;;;;;8.17;5.77;;;;;;;4.55;98.80;99659.81;5054370;28;20264;-73
2020/12/31 11:06:26;;;;;;;7.23;5.73;;;;;;;4.75;98.43;99644.63;5067538;28;20313;-74
2020/12/31 11:08:55;;;;;;;6.30;5.70;;;;;;;4.57;98.29;99646.91;5060584;28;20191;-74
2020/12/31 11:11:33;;;;;;;7.23;5.60;;;;;;;4.41;99.62;99651.34;5077912;28;20242;-73
2020/12/31 11:13:59;;;;;;;7.67;6.10;;;;;;;4.55;98.92;99649.88;5070933;28;20202;-76
2020/12/31 11:16:29;;;;;;;7.40;6.23;;;;;;;4.44;99.66;99645.47;5055162;28;20237;-73
2020/12/31 11:18:55;;;;;;;8.27;7.27;;;;;;;4.52;99.14;99642.31;5085978;28;20201;-73
2020/12/31 11:21:21;;;;;;;8.50;7.30;;;;;;;4.45;100.00;99639.06;5055402;28;20210;-73
2020/12/31 11:23:47;;;;;;;8.20;6.90;;;;;;;4.54;100.00;99629.41;5037999;28;20628;-73
2020/12/31 11:26:20;;;;;;;10.63;8.10;;;;;;;4.51;100.00;99638.00;5044987;28;20587;-73
2020/12/31 11:28:46;;;;;;;14.90;11.00;;;;;;;4.48;100.00;99643.88;5051390;28;20175;-72
2020/12/31 11:31:12;;;;;;;9.23;7.57;;;;;;;4.53;100.00;99645.81;5068838;28;20222;-72
2020/12/31 11:33:39;;;;;;;8.80;7.20;;;;;;;4.47;100.00;99639.59;5027869;28;20183;-72
2020/12/31 11:36:07;;;;;;;9.40;7.20;;;;;;;4.39;100.00;99640.06;5054612;28;20230;-72
2020/12/31 11:38:36;;;;;;;8.13;6.90;;;;;;;4.48;100.00;99638.50;5053529;28;20178;-74